Time;durP1;ratioP1;P1;durP2;ratioP2;P2;SDS_P1;SDS_P2;PMS_P1;PMS_P2;Temp;Humidity;BMP_temperature;BMP_pressure;BME280_temperature;BME280_humidity;BME280_pressure;Samples;Min_cycle;Max_cycle;Signal;HPM_P1;HPM_P2
2022/04/01 00:00:35;;;;;;;13.10;5.20;;;10.80;99.90;;;;;;5041914;28;20180;-63
2022/04/01 00:03:01;;;;;;;15.23;6.23;;;10.80;99.90;;;;;;5046631;28;20188;-63
2022/04/01 00:05:27;;;;;;;20.13;5.17;;;10.80;99.90;;;;;;5043654;28;20507;-63
2022/04/01 00:07:53;;;;;;;16.30;5.60;;;10.80;99.90;;;;;;5047310;28;20183;-62
2022/04/01 00:10:21;;;;;;;17.73;6.53;;;10.70;99.90;;;;;;5044577;28;20759;-64
2022/04/01 00:12:47;;;;;;;16.27;5.37;;;10.70;99.90;;;;;;5038891;28;20188;-63
2022/04/01 00:15:15;;;;;;;14.30;5.43;;;10.70;99.90;;;;;;5046645;28;20199;-64
2022/04/01 00:17:44;;;;;;;15.83;5.67;;;10.70;99.90;;;;;;5046446;28;20211;-63
2022/04/01 00:20:19;;;;;;;10.20;6.07;;;10.70;99.90;;;;;;5046523;28;20275;-63
2022/04/01 00:22:46;;;;;;;21.10;5.53;;;10.60;99.90;;;;;;5037899;28;20647;-65
2022/04/01 00:25:12;;;;;;;15.10;5.60;;;10.60;99.90;;;;;;5045181;28;20275;-63
2022/04/01 00:27:39;;;;;;;11.70;5.20;;;10.60;99.90;;;;;;5045127;28;20210;-64
2022/04/01 00:30:06;;;;;;;10.43;5.60;;;10.60;99.90;;;;;;5042008;28;20195;-65
2022/04/01 00:32:34;;;;;;;17.67;5.57;;;10.60;99.90;;;;;;5044880;28;20657;-65
2022/04/01 00:35:00;;;;;;;19.27;5.70;;;10.60;99.90;;;;;;5055765;28;20179;-63
2022/04/01 00:37:26;;;;;;;15.70;5.73;;;10.50;99.90;;;;;;5037733;28;20226;-64
2022/04/01 00:39:54;;;;;;;14.07;5.33;;;10.50;99.90;;;;;;5030757;28;20214;-62
2022/04/01 00:42:21;;;;;;;12.63;5.63;;;10.50;99.90;;;;;;5035759;28;20187;-63
2022/04/01 00:44:47;;;;;;;16.37;5.83;;;10.50;99.90;;;;;;5040185;28;20215;-64
2022/04/01 00:47:15;;;;;;;11.57;5.60;;;10.50;99.90;;;;;;5041322;28;20191;-64
2022/04/01 00:49:44;;;;;;;15.17;5.10;;;10.40;99.90;;;;;;5037974;28;20222;-63
2022/04/01 00:52:16;;;;;;;20.73;5.17;;;10.40;99.90;;;;;;5046549;28;20223;-62
2022/04/01 00:54:43;;;;;;;14.73;5.57;;;10.30;99.90;;;;;;5051519;28;20184;-63
2022/04/01 00:57:13;;;;;;;18.20;5.97;;;10.30;99.90;;;;;;5045304;28;20186;-63
2022/04/01 00:59:41;;;;;;;14.63;5.67;;;10.30;99.90;;;;;;5053612;28;20192;-63
2022/04/01 01:02:08;;;;;;;16.83;5.43;;;10.30;99.90;;;;;;5044710;28;20667;-63
2022/04/01 01:04:35;;;;;;;15.33;5.33;;;10.30;99.90;;;;;;5043195;28;20229;-64
2022/04/01 01:07:04;;;;;;;16.47;5.33;;;10.30;99.90;;;;;;5045313;28;20197;-62
2022/04/01 01:09:31;;;;;;;15.07;5.90;;;10.30;99.90;;;;;;5050229;28;20233;-64
2022/04/01 01:11:57;;;;;;;14.73;5.67;;;10.40;99.90;;;;;;5045462;28;20184;-63
2022/04/01 01:14:34;;;;;;;18.23;5.37;;;10.40;99.90;;;;;;5039191;28;20283;-63
2022/04/01 01:17:04;;;;;;;15.47;5.70;;;10.50;99.90;;;;;;5024233;28;20513;-64
2022/04/01 01:19:31;;;;;;;16.97;5.37;;;10.60;99.90;;;;;;5059664;28;20262;-63
2022/04/01 01:21:58;;;;;;;15.73;5.23;;;10.60;99.90;;;;;;5055199;28;20212;-64
2022/04/01 01:24:35;;;;;;;23.07;5.60;;;10.70;99.90;;;;;;5041933;28;20240;-63
2022/04/01 01:27:06;;;;;;;14.23;5.30;;;10.70;99.90;;;;;;5047100;28;20183;-63
2022/04/01 01:29:35;;;;;;;19.97;5.80;;;10.80;99.90;;;;;;5039944;28;20295;-65
2022/04/01 01:32:05;;;;;;;14.70;4.93;;;10.80;99.90;;;;;;5048540;28;20209;-63
2022/04/01 01:34:32;;;;;;;17.33;6.13;;;10.80;99.90;;;;;;5048661;28;20187;-63
2022/04/01 01:37:00;;;;;;;13.30;5.30;;;10.70;99.90;;;;;;5036532;28;20216;-62
2022/04/01 01:39:27;;;;;;;10.60;5.50;;;10.60;99.90;;;;;;5056171;28;20215;-63
2022/04/01 01:41:53;;;;;;;15.13;5.27;;;10.50;99.90;;;;;;5044907;28;20229;-62
2022/04/01 01:44:22;;;;;;;21.87;5.40;;;10.40;99.90;;;;;;5054710;28;20606;-64
2022/04/01 01:46:50;;;;;;;14.93;5.60;;;10.40;99.90;;;;;;5036902;28;20180;-64
2022/04/01 01:49:20;;;;;;;13.43;5.47;;;10.30;99.90;;;;;;5038836;28;20184;-65
2022/04/01 01:55:05;;;;;;;14.73;5.30;;;10.30;99.90;;;;;;5040873;28;20188;-64
2022/04/01 01:57:25;;;;;;;20.60;6.03;;;10.30;99.90;;;;;;5031338;28;20199;-65
2022/04/01 01:59:53;;;;;;;13.30;4.93;;;10.30;99.90;;;;;;5054291;28;20584;-63
2022/04/01 02:02:20;;;;;;;13.27;5.20;;;10.30;99.90;;;;;;5038455;28;20184;-64
2022/04/01 02:04:47;;;;;;;18.93;5.93;;;10.30;99.90;;;;;;5039929;28;20314;-63
2022/04/01 02:07:13;;;;;;;18.47;5.90;;;10.30;99.90;;;;;;5046886;28;20191;-63
2022/04/01 02:09:46;;;;;;;12.07;5.27;;;10.30;99.90;;;;;;5044151;28;20188;-63
2022/04/01 02:12:13;;;;;;;13.83;5.17;;;10.40;99.90;;;;;;5033508;28;20873;-64
2022/04/01 02:14:39;;;;;;;15.27;5.37;;;10.40;99.90;;;;;;5045734;28;20282;-63
2022/04/01 02:17:06;;;;;;;12.97;4.83;;;10.40;99.90;;;;;;5044965;28;20196;-63
2022/04/01 02:19:32;;;;;;;18.43;5.47;;;10.40;99.90;;;;;;5037730;28;20284;-64
2022/04/01 02:21:59;;;;;;;15.13;4.63;;;10.40;99.90;;;;;;5047948;28;20267;-63
2022/04/01 02:24:27;;;;;;;16.33;4.70;;;10.40;99.90;;;;;;5053781;28;20207;-63
2022/04/01 02:26:53;;;;;;;24.73;5.30;;;10.50;99.90;;;;;;5042200;28;20191;-63
2022/04/01 02:29:22;;;;;;;14.37;4.53;;;10.50;99.90;;;;;;5043948;28;20211;-65
2022/04/01 02:31:50;;;;;;;14.80;5.20;;;10.50;99.90;;;;;;5046748;28;20210;-62
2022/04/01 02:34:26;;;;;;;18.80;5.40;;;10.50;99.90;;;;;;5048501;28;20202;-63
2022/04/01 02:36:56;;;;;;;17.17;4.83;;;10.40;99.90;;;;;;5056151;28;20690;-62
2022/04/01 02:39:22;;;;;;;18.13;5.33;;;10.40;99.90;;;;;;5045201;28;20211;-63
2022/04/01 02:41:48;;;;;;;20.97;5.03;;;10.40;99.90;;;;;;5047801;28;20199;-64
2022/04/01 02:44:15;;;;;;;14.40;4.37;;;10.40;99.90;;;;;;5040943;28;20867;-63
2022/04/01 02:46:45;;;;;;;14.80;4.67;;;10.40;99.90;;;;;;5048127;28;20203;-64
2022/04/01 02:49:18;;;;;;;25.80;5.63;;;10.50;99.90;;;;;;5034414;28;20199;-63
2022/04/01 02:51:47;;;;;;;20.63;5.07;;;10.60;99.90;;;;;;5059101;28;20191;-65
2022/04/01 02:54:14;;;;;;;25.27;5.37;;;10.50;99.90;;;;;;5042819;28;20207;-64
2022/04/01 02:56:41;;;;;;;15.93;4.60;;;10.50;99.90;;;;;;5041367;28;20191;-65
2022/04/01 02:59:09;;;;;;;12.80;4.87;;;10.50;99.90;;;;;;5043919;28;20743;-65
2022/04/01 03:01:38;;;;;;;16.67;5.27;;;10.50;99.90;;;;;;5045321;28;20265;-63
2022/04/01 03:04:12;;;;;;;12.97;4.33;;;10.50;99.90;;;;;;5043575;28;20187;-63
2022/04/01 03:06:42;;;;;;;23.30;4.90;;;10.40;99.90;;;;;;5036908;28;20190;-65
2022/04/01 03:09:11;;;;;;;15.03;5.00;;;10.30;99.90;;;;;;5051783;28;20203;-63
2022/04/01 03:11:38;;;;;;;18.10;4.67;;;10.30;99.90;;;;;;5042755;28;20191;-62
2022/04/01 03:14:08;;;;;;;23.43;4.63;;;10.30;99.90;;;;;;5039222;28;20249;-64
2022/04/01 03:16:36;;;;;;;21.87;4.87;;;10.40;99.90;;;;;;5035876;28;20195;-63
2022/04/01 03:19:03;;;;;;;17.37;4.70;;;10.40;99.90;;;;;;5042834;28;20710;-64
2022/04/01 03:21:29;;;;;;;14.97;4.83;;;10.40;99.90;;;;;;5042466;28;20188;-62
2022/04/01 03:23:56;;;;;;;15.13;4.07;;;10.30;99.90;;;;;;5034724;28;20290;-64
2022/04/01 03:26:23;;;;;;;21.97;4.83;;;10.20;99.90;;;;;;5037201;28;20206;-62
2022/04/01 03:28:49;;;;;;;17.50;4.60;;;10.20;99.90;;;;;;5037850;28;20275;-63
2022/04/01 03:31:17;;;;;;;24.30;5.07;;;10.30;99.90;;;;;;5040752;28;20191;-63
2022/04/01 03:33:43;;;;;;;19.80;4.37;;;10.40;99.90;;;;;;5043693;28;20195;-62
2022/04/01 03:36:10;;;;;;;18.20;4.20;;;10.40;99.90;;;;;;5040580;28;20276;-65
2022/04/01 03:38:38;;;;;;;18.83;4.87;;;10.40;99.90;;;;;;5041746;28;20294;-63
2022/04/01 03:41:05;;;;;;;20.60;4.37;;;10.50;99.90;;;;;;5041421;28;20275;-64
2022/04/01 03:43:36;;;;;;;22.40;4.33;;;10.50;99.90;;;;;;5038554;28;20638;-63
2022/04/01 03:46:13;;;;;;;13.13;3.73;;;10.50;99.90;;;;;;5057932;28;20184;-64
2022/04/01 03:48:52;;;;;;;18.77;4.43;;;10.50;99.90;;;;;;5041846;28;20311;-62
2022/04/01 03:51:24;;;;;;;14.57;4.07;;;10.50;99.90;;;;;;5038326;28;20191;-64
2022/04/01 03:54:03;;;;;;;17.17;4.20;;;10.50;99.90;;;;;;5046355;28;20202;-65
2022/04/01 03:56:35;;;;;;;17.27;4.37;;;10.50;99.90;;;;;;5045000;28;20191;-64
2022/04/01 03:59:05;;;;;;;22.53;4.77;;;10.50;99.90;;;;;;5051701;28;20590;-63
2022/04/01 04:01:34;;;;;;;21.20;4.50;;;10.60;99.90;;;;;;5042220;28;20187;-63
2022/04/01 04:04:03;;;;;;;16.37;4.80;;;10.70;99.90;;;;;;5044927;28;20212;-63
2022/04/01 04:06:29;;;;;;;20.07;4.57;;;10.70;99.90;;;;;;5046093;28;20188;-63
2022/04/01 04:08:58;;;;;;;20.47;4.30;;;10.80;99.90;;;;;;5043161;28;20188;-64
2022/04/01 04:11:31;;;;;;;23.53;4.97;;;10.90;99.90;;;;;;5040095;28;20191;-62
2022/04/01 04:14:00;;;;;;;20.07;5.03;;;10.80;99.90;;;;;;5045601;28;20314;-63
2022/04/01 04:16:36;;;;;;;16.63;4.43;;;10.90;99.90;;;;;;5046258;28;20266;-65
2022/04/01 04:19:14;;;;;;;18.90;4.40;;;10.90;99.90;;;;;;5040155;28;20211;-64
2022/04/01 04:21:49;;;;;;;16.10;4.03;;;10.90;99.90;;;;;;5046633;28;20288;-62
2022/04/01 04:24:28;;;;;;;23.23;4.83;;;11.00;99.90;;;;;;5045066;28;20198;-65
2022/04/01 04:27:11;;;;;;;28.33;5.10;;;11.00;99.90;;;;;;5047647;28;20674;-63
2022/04/01 04:29:50;;;;;;;18.63;4.13;;;11.00;99.90;;;;;;5048702;28;20191;-62
2022/04/01 04:32:39;;;;;;;16.57;4.80;;;11.10;99.90;;;;;;5041991;28;20190;-64
2022/04/01 04:35:11;;;;;;;19.70;4.67;;;11.20;99.90;;;;;;5049971;28;20260;-62
2022/04/01 04:37:45;;;;;;;18.67;4.97;;;11.20;99.90;;;;;;5050268;28;20588;-63
2022/04/01 04:40:14;;;;;;;21.87;4.67;;;11.20;99.90;;;;;;5050756;28;20222;-64
2022/04/01 04:42:51;;;;;;;15.10;4.20;;;11.30;99.90;;;;;;5061309;28;20176;-63
2022/04/01 04:45:24;;;;;;;17.37;4.53;;;11.30;99.90;;;;;;5036627;28;20194;-64
2022/04/01 04:47:52;;;;;;;22.10;4.83;;;11.30;99.90;;;;;;5029446;28;20188;-64
2022/04/01 04:50:20;;;;;;;17.43;4.67;;;11.40;99.90;;;;;;5031978;28;20195;-64
2022/04/01 04:52:55;;;;;;;20.17;5.23;;;11.40;99.90;;;;;;5037496;28;20552;-64
2022/04/01 04:55:24;;;;;;;19.00;5.13;;;11.40;99.90;;;;;;5044667;28;20267;-64
2022/04/01 04:57:53;;;;;;;17.40;5.50;;;11.40;99.90;;;;;;5048754;28;20223;-65
2022/04/01 05:00:21;;;;;;;18.20;6.80;;;11.50;99.90;;;;;;5041865;28;20315;-64
2022/04/01 05:03:07;;;;;;;19.33;7.73;;;11.60;99.90;;;;;;5062542;28;20206;-64
2022/04/01 05:05:49;;;;;;;19.30;7.27;;;11.60;99.90;;;;;;5047700;28;20183;-65
2022/04/01 05:08:40;;;;;;;19.37;8.17;;;11.70;99.90;;;;;;5043506;28;20301;-63
2022/04/01 05:11:41;;;;;;;20.37;7.87;;;11.80;99.90;;;;;;5044342;28;20187;-64
2022/04/01 05:15:08;;;;;;;16.80;6.13;;;11.90;99.90;;;;;;5053019;28;20287;-64
2022/04/01 05:18:14;;;;;;;18.10;7.03;;;12.00;99.90;;;;;;5022733;28;20196;-63
2022/04/01 05:20:55;;;;;;;20.57;5.93;;;12.10;99.90;;;;;;5046957;28;20583;-63
2022/04/01 05:24:00;;;;;;;20.60;6.13;;;12.10;99.90;;;;;;5041005;28;20179;-63
2022/04/01 05:26:40;;;;;;;26.90;7.77;;;12.20;99.90;;;;;;5043768;28;20191;-62
2022/04/01 05:29:25;;;;;;;19.73;8.53;;;12.30;99.90;;;;;;5048333;28;20281;-65
2022/04/01 05:32:03;;;;;;;23.73;8.00;;;12.40;99.90;;;;;;5036090;28;20196;-63
2022/04/01 05:34:51;;;;;;;17.70;6.00;;;12.50;99.90;;;;;;5047203;28;20183;-64
2022/04/01 05:37:18;;;;;;;18.30;5.97;;;12.60;99.90;;;;;;5042171;28;20219;-64
2022/04/01 05:39:48;;;;;;;16.87;6.00;;;12.70;99.90;;;;;;5049864;28;20253;-63
2022/04/01 05:42:18;;;;;;;21.23;6.07;;;12.80;99.90;;;;;;5042973;28;20211;-63
2022/04/01 05:44:47;;;;;;;21.33;5.60;;;12.80;99.90;;;;;;5047062;28;20195;-65
2022/04/01 05:47:13;;;;;;;18.27;5.23;;;12.90;99.90;;;;;;5048091;28;20693;-65
2022/04/01 05:49:43;;;;;;;19.63;5.07;;;13.00;99.90;;;;;;5048469;28;20198;-64
2022/04/01 05:52:11;;;;;;;18.90;4.43;;;13.00;99.90;;;;;;5048700;28;20187;-63
2022/04/01 05:54:41;;;;;;;24.03;5.97;;;13.10;99.90;;;;;;5048493;28;20603;-64
2022/04/01 05:57:10;;;;;;;17.83;4.37;;;13.10;99.90;;;;;;5044850;28;20198;-63
2022/04/01 05:59:38;;;;;;;22.50;5.00;;;13.20;99.90;;;;;;5042123;28;20222;-63
2022/04/01 06:03:07;;;;;;;20.77;4.63;;;13.20;99.90;;;;;;5041512;28;20211;-65
2022/04/01 06:05:56;;;;;;;21.00;4.53;;;13.20;99.90;;;;;;5042570;28;20184;-65
2022/04/01 06:08:49;;;;;;;23.37;4.70;;;13.30;99.90;;;;;;5042123;28;20188;-63
2022/04/01 06:11:56;;;;;;;17.37;4.23;;;13.30;99.90;;;;;;5044477;28;20679;-64
2022/04/01 06:14:41;;;;;;;22.63;4.63;;;13.30;99.90;;;;;;5047640;28;20199;-65
2022/04/01 06:17:46;;;;;;;12.57;4.17;;;13.40;99.90;;;;;;5047574;28;20183;-65
2022/04/01 06:20:16;;;;;;;20.83;4.87;;;13.50;99.90;;;;;;5037651;28;20236;-63
2022/04/01 06:23:07;;;;;;;22.93;4.77;;;13.60;99.90;;;;;;5062623;28;20240;-64
2022/04/01 06:25:45;;;;;;;11.67;4.60;;;13.70;99.90;;;;;;5043857;28;20253;-64
2022/04/01 06:28:38;;;;;;;23.93;4.63;;;13.80;99.90;;;;;;5047738;28;20237;-63
2022/04/01 06:31:08;;;;;;;21.33;4.37;;;13.90;99.90;;;;;;5047206;28;20252;-64
2022/04/01 06:34:10;;;;;;;21.23;5.00;;;13.90;99.90;;;;;;5064089;28;20305;-64
2022/04/01 06:36:46;;;;;;;19.27;4.27;;;14.00;99.90;;;;;;5043965;28;20679;-64
2022/04/01 06:39:56;;;;;;;27.67;5.20;;;14.10;99.90;;;;;;5036264;28;20322;-66
2022/04/01 06:42:30;;;;;;;15.70;4.93;;;14.10;99.90;;;;;;5035908;28;20365;-64
2022/04/01 06:44:58;;;;;;;22.67;4.70;;;14.20;99.90;;;;;;5047583;28;20227;-63
2022/04/01 06:47:24;;;;;;;16.67;4.03;;;14.30;99.90;;;;;;5046197;28;20215;-64
2022/04/01 06:49:51;;;;;;;18.33;4.70;;;14.40;99.90;;;;;;5043468;28;20204;-64
2022/04/01 06:52:19;;;;;;;21.87;5.07;;;14.50;99.90;;;;;;5023639;28;20196;-63
2022/04/01 06:54:46;;;;;;;24.70;4.77;;;14.50;99.90;;;;;;5045634;28;20191;-65
2022/04/01 06:57:14;;;;;;;23.60;4.83;;;14.60;99.90;;;;;;5047933;28;20183;-64
2022/04/01 06:59:41;;;;;;;15.00;5.00;;;14.70;99.90;;;;;;5041778;28;20208;-63
2022/04/01 07:02:08;;;;;;;19.23;4.90;;;14.80;99.90;;;;;;5039212;28;20195;-63
2022/04/01 07:04:34;;;;;;;16.90;5.10;;;14.90;99.90;;;;;;5033311;28;20252;-65
2022/04/01 07:07:01;;;;;;;24.83;5.30;;;15.00;99.90;;;;;;5035705;28;20279;-64
2022/04/01 07:09:27;;;;;;;17.87;4.30;;;15.10;99.90;;;;;;5041556;28;20272;-63
2022/04/01 07:11:53;;;;;;;23.47;4.70;;;15.10;99.90;;;;;;5034932;28;20199;-63
2022/04/01 07:14:20;;;;;;;23.43;5.20;;;15.20;99.90;;;;;;5037954;28;20234;-66
2022/04/01 07:16:49;;;;;;;23.10;4.70;;;15.30;99.90;;;;;;5040640;28;20188;-63
2022/04/01 07:19:15;;;;;;;19.63;4.90;;;15.30;99.90;;;;;;5032303;28;20238;-64
2022/04/01 07:21:42;;;;;;;21.80;4.80;;;15.40;99.90;;;;;;5043225;28;20184;-64
2022/04/01 07:24:08;;;;;;;16.10;4.67;;;15.60;99.90;;;;;;5037096;28;20188;-63
2022/04/01 07:26:35;;;;;;;15.73;4.20;;;15.60;99.90;;;;;;5029617;28;20184;-64
2022/04/01 07:29:01;;;;;;;15.13;4.17;;;15.70;99.90;;;;;;5029479;28;20184;-64
2022/04/01 07:34:16;;;;;;;17.53;4.13;;;15.80;99.90;;;;;;5038012;28;20203;-64
2022/04/01 07:36:42;;;;;;;19.47;4.47;;;15.90;99.90;;;;;;5028670;28;20669;-64
2022/04/01 07:39:09;;;;;;;18.80;4.50;;;16.00;99.90;;;;;;5038660;28;20219;-64
2022/04/01 07:41:36;;;;;;;19.07;4.87;;;16.10;99.90;;;;;;5038041;28;20180;-64
2022/04/01 07:44:03;;;;;;;21.87;4.70;;;16.20;99.90;;;;;;5038416;28;20199;-65
2022/04/01 07:46:30;;;;;;;19.67;5.07;;;16.30;99.90;;;;;;5035670;28;20188;-63
2022/04/01 07:48:59;;;;;;;25.50;5.67;;;16.40;99.90;;;;;;5034384;28;20271;-64
2022/04/01 07:51:26;;;;;;;20.67;5.17;;;16.40;99.90;;;;;;5036840;28;20227;-64
2022/04/01 07:53:52;;;;;;;15.73;4.50;;;16.40;99.90;;;;;;5041818;28;20240;-64
2022/04/01 07:56:18;;;;;;;20.30;5.30;;;16.50;99.90;;;;;;5057011;28;20245;-63
2022/04/01 07:58:44;;;;;;;23.13;5.03;;;16.60;99.90;;;;;;5034972;28;20196;-64
2022/04/01 08:01:11;;;;;;;19.57;5.00;;;16.70;99.90;;;;;;5023967;28;20191;-66
2022/04/01 08:03:41;;;;;;;23.50;5.10;;;16.70;99.90;;;;;;5040391;28;20235;-64
2022/04/01 08:06:08;;;;;;;17.10;4.87;;;16.70;99.90;;;;;;5039509;28;20183;-64
2022/04/01 08:08:34;;;;;;;23.50;5.07;;;16.80;99.90;;;;;;5034956;28;20195;-65
2022/04/01 08:11:00;;;;;;;20.30;4.97;;;16.90;99.90;;;;;;5037103;28;20575;-65
2022/04/01 08:13:26;;;;;;;18.73;5.03;;;16.90;99.90;;;;;;5033950;28;20553;-64
2022/04/01 08:15:53;;;;;;;19.43;5.30;;;17.00;99.90;;;;;;5035507;28;20321;-64
2022/04/01 08:18:20;;;;;;;25.00;4.80;;;17.20;99.90;;;;;;5059139;28;20251;-63
2022/04/01 08:20:46;;;;;;;22.03;4.70;;;17.30;99.90;;;;;;5043719;28;20203;-64
2022/04/01 08:23:12;;;;;;;26.37;4.97;;;17.40;99.90;;;;;;5039634;28;20198;-65
2022/04/01 08:25:39;;;;;;;19.70;4.80;;;17.50;99.90;;;;;;5036509;28;20194;-66
2022/04/01 08:28:06;;;;;;;18.00;4.80;;;17.50;99.90;;;;;;5037489;28;20188;-65
2022/04/01 08:30:33;;;;;;;21.77;4.57;;;17.70;99.90;;;;;;5039058;28;20611;-64
2022/04/01 08:32:59;;;;;;;24.03;5.17;;;17.80;99.90;;;;;;5046340;28;20191;-65
2022/04/01 08:35:26;;;;;;;21.13;4.33;;;18.00;99.90;;;;;;5039982;28;20214;-64
2022/04/01 08:37:55;;;;;;;22.73;4.47;;;18.10;99.90;;;;;;5040312;28;20208;-65
2022/04/01 08:40:22;;;;;;;23.63;4.87;;;18.20;99.90;;;;;;5063207;28;20833;-64
2022/04/01 08:42:49;;;;;;;23.77;4.77;;;18.30;99.90;;;;;;5042147;28;20191;-65
2022/04/01 08:45:20;;;;;;;21.10;3.97;;;18.30;99.90;;;;;;5037087;28;20190;-63
2022/04/01 08:47:50;;;;;;;21.13;4.63;;;18.30;99.90;;;;;;5035377;28;20183;-64
2022/04/01 08:50:16;;;;;;;24.03;5.00;;;18.40;99.90;;;;;;5039265;28;20192;-65
2022/04/01 08:52:43;;;;;;;17.63;4.43;;;18.50;99.90;;;;;;5038265;28;20601;-64
2022/04/01 08:55:12;;;;;;;13.53;4.43;;;18.50;99.90;;;;;;5021020;28;20256;-64
2022/04/01 08:57:42;;;;;;;24.40;4.80;;;18.70;99.90;;;;;;5030639;28;20973;-66
2022/04/01 09:00:14;;;;;;;24.93;4.20;;;18.80;99.90;;;;;;5037794;28;20279;-65
2022/04/01 09:02:43;;;;;;;18.23;4.67;;;19.00;99.90;;;;;;5044487;28;20221;-65
2022/04/01 09:05:12;;;;;;;23.03;4.83;;;19.10;99.90;;;;;;5040977;28;20261;-63
2022/04/01 09:07:38;;;;;;;17.23;4.50;;;19.20;99.90;;;;;;5043558;28;20183;-64
2022/04/01 09:10:08;;;;;;;22.27;4.97;;;19.30;99.90;;;;;;5055450;28;20872;-67
2022/04/01 09:12:35;;;;;;;21.60;5.00;;;19.40;99.90;;;;;;5040753;28;20192;-66
2022/04/01 09:15:04;;;;;;;26.40;4.90;;;19.50;99.90;;;;;;5044311;28;20230;-67
2022/04/01 09:17:46;;;;;;;17.93;4.03;;;19.70;99.90;;;;;;5040076;28;20630;-67
2022/04/01 09:20:15;;;;;;;17.33;4.97;;;19.80;99.90;;;;;;5039360;28;20278;-67
2022/04/01 09:22:44;;;;;;;17.97;4.70;;;20.10;99.90;;;;;;5050853;28;20233;-68
2022/04/01 09:25:15;;;;;;;16.67;4.90;;;20.20;99.90;;;;;;5039095;28;20270;-67
2022/04/01 09:27:53;;;;;;;19.47;4.77;;;20.40;99.90;;;;;;5037659;28;20218;-66
2022/04/01 09:30:23;;;;;;;25.47;4.80;;;20.50;99.90;;;;;;5031889;28;20264;-68
2022/04/01 09:32:55;;;;;;;24.50;5.53;;;20.70;99.90;;;;;;5044376;28;20663;-67
2022/04/01 09:35:25;;;;;;;27.23;6.60;;;20.90;99.90;;;;;;5034395;28;20230;-66
2022/04/01 09:37:59;;;;;;;26.43;7.00;;;21.00;99.90;;;;;;5051376;28;20184;-67
2022/04/01 09:40:26;;;;;;;29.40;6.53;;;21.00;99.90;;;;;;5043300;28;20237;-66
2022/04/01 09:42:57;;;;;;;26.77;5.80;;;21.20;99.90;;;;;;5037051;28;20215;-66
2022/04/01 09:45:30;;;;;;;27.73;5.70;;;21.20;99.90;;;;;;5041056;28;20191;-67
2022/04/01 09:48:04;;;;;;;19.40;5.27;;;21.50;99.90;;;;;;5036670;28;20192;-67
2022/04/01 09:50:43;;;;;;;23.20;6.67;;;21.60;99.90;;;;;;5041899;28;20679;-67
2022/04/01 09:53:17;;;;;;;33.77;6.53;;;21.70;99.90;;;;;;5038876;28;20227;-68
2022/04/01 09:55:47;;;;;;;39.63;7.20;;;22.00;99.90;;;;;;5036692;28;20594;-67
2022/04/01 09:58:16;;;;;;;28.02;6.43;;;22.20;99.90;;;;;;5035627;28;20311;-69
2022/04/01 10:00:45;;;;;;;25.47;6.67;;;22.40;99.90;;;;;;5038843;28;20198;-68
2022/04/01 10:03:15;;;;;;;23.73;6.53;;;22.70;99.90;;;;;;5033382;28;20202;-67
2022/04/01 10:05:43;;;;;;;31.97;6.73;;;23.00;99.90;;;;;;5041498;28;20639;-69
2022/04/01 10:08:12;;;;;;;23.73;6.80;;;23.20;99.90;;;;;;5032540;28;20219;-67
2022/04/01 10:10:41;;;;;;;23.27;6.88;;;23.30;99.90;;;;;;5045793;28;20222;-67
2022/04/01 10:13:19;;;;;;;26.48;6.63;;;23.40;99.90;;;;;;5036958;28;20250;-69
2022/04/01 10:15:47;;;;;;;31.98;7.45;;;23.40;99.90;;;;;;5038489;28;20190;-68
2022/04/01 10:18:15;;;;;;;36.50;6.38;;;23.60;99.90;;;;;;5033338;28;20199;-68
2022/04/01 10:20:41;;;;;;;28.85;7.07;;;23.80;99.90;;;;;;5029848;28;20185;-68
2022/04/01 10:23:12;;;;;;;26.50;6.75;;;24.90;99.90;;;;;;5049119;28;20282;-68
2022/04/01 10:25:53;;;;;;;27.75;5.70;;;25.10;99.90;;;;;;5059750;28;20214;-67
2022/04/01 10:28:21;;;;;;;26.35;5.30;;;24.20;99.90;;;;;;5043779;28;20265;-66
2022/04/01 10:30:58;;;;;;;28.73;5.72;;;23.80;99.90;;;;;;5041388;28;20187;-68
2022/04/01 10:33:31;;;;;;;31.73;5.93;;;23.50;99.80;;;;;;5036124;28;20187;-67
2022/04/01 10:36:21;;;;;;;41.70;5.60;;;23.50;99.90;;;;;;5035309;28;20220;-67
2022/04/01 10:38:58;;;;;;;28.00;4.97;;;23.40;99.90;;;;;;5034030;28;20219;-67
2022/04/01 10:41:25;;;;;;;40.50;5.68;;;23.40;99.90;;;;;;5033357;28;20298;-67
2022/04/01 10:43:57;;;;;;;28.52;5.70;;;23.30;99.70;;;;;;5032862;28;20195;-66
2022/04/01 10:46:27;;;;;;;24.05;4.90;;;23.30;99.80;;;;;;5030713;28;20187;-66
2022/04/01 10:52:17;;;;;;;23.10;5.20;;;23.20;99.90;;;;;;5036191;28;20191;-66
2022/04/01 10:55:07;;;;;;;22.30;5.32;;;23.00;99.80;;;;;;5035493;28;20203;-66
2022/04/01 10:57:46;;;;;;;29.45;5.82;;;22.90;99.40;;;;;;5032264;28;20303;-66
2022/04/01 11:00:18;;;;;;;28.13;5.20;;;22.70;99.90;;;;;;5051443;28;20192;-67
2022/04/01 11:02:47;;;;;;;29.02;5.70;;;22.80;99.90;;;;;;5037244;28;21421;-66
2022/04/01 11:05:32;;;;;;;27.07;5.43;;;22.70;99.90;;;;;;5034539;28;20652;-66
2022/04/01 11:08:23;;;;;;;26.13;5.90;;;22.60;99.90;;;;;;5041036;28;20219;-66
2022/04/01 11:11:12;;;;;;;38.85;6.10;;;22.50;99.90;;;;;;5044556;28;20535;-67
2022/04/01 11:13:39;;;;;;;23.50;5.45;;;22.40;99.90;;;;;;5033835;28;20249;-66
2022/04/01 11:16:20;;;;;;;24.98;5.53;;;22.40;99.90;;;;;;5040263;28;20655;-66
2022/04/01 11:19:35;;;;;;;23.95;5.82;;;22.30;99.90;;;;;;5038949;28;20220;-67
2022/04/01 11:22:21;;;;;;;18.93;5.07;;;22.30;99.90;;;;;;5036242;28;20700;-66
2022/04/01 11:24:47;;;;;;;22.87;5.40;;;22.30;99.90;;;;;;5034979;28;20199;-67
2022/04/01 11:27:26;;;;;;;20.73;5.23;;;22.30;99.90;;;;;;5036786;28;20253;-66
2022/04/01 11:30:24;;;;;;;23.37;6.03;;;22.30;99.90;;;;;;5018896;28;20184;-65
2022/04/01 11:33:17;;;;;;;23.80;5.40;;;22.40;99.90;;;;;;5030430;28;20652;-68
2022/04/01 11:35:49;;;;;;;24.87;6.17;;;22.40;99.90;;;;;;5039816;28;20223;-69
2022/04/01 11:38:22;;;;;;;24.53;5.60;;;22.40;99.90;;;;;;5034901;28;20563;-68
2022/04/01 11:40:55;;;;;;;22.02;6.10;;;22.50;99.90;;;;;;5036431;28;20180;-69
2022/04/01 11:43:25;;;;;;;22.33;5.00;;;22.50;99.90;;;;;;5034313;28;20660;-67
2022/04/01 11:45:59;;;;;;;25.63;5.73;;;22.50;99.90;;;;;;5033201;28;20571;-68
2022/04/01 11:48:38;;;;;;;22.48;5.72;;;22.50;99.90;;;;;;5032938;28;20187;-67
2022/04/01 11:51:19;;;;;;;22.85;6.00;;;22.50;99.90;;;;;;5036303;28;20346;-68
2022/04/01 11:53:56;;;;;;;23.27;5.35;;;22.50;99.90;;;;;;5035212;28;20188;-69
2022/04/01 11:56:27;;;;;;;19.60;5.37;;;22.50;99.90;;;;;;5040961;28;20183;-67
2022/04/01 11:59:01;;;;;;;21.00;5.30;;;22.50;99.90;;;;;;5033250;28;20785;-67
2022/04/01 12:01:54;;;;;;;19.87;4.87;;;22.50;99.90;;;;;;5038199;28;20184;-68
2022/04/01 12:04:33;;;;;;;27.10;5.60;;;22.60;99.90;;;;;;5035193;28;20192;-68
2022/04/01 12:09:59;;;;;;;36.57;6.40;;;22.70;99.90;;;;;;5041803;28;20195;-68
2022/04/01 12:12:26;;;;;;;19.35;5.40;;;22.70;99.90;;;;;;5034420;28;20326;-68
2022/04/01 12:15:00;;;;;;;21.03;6.20;;;22.70;99.90;;;;;;5034528;28;20679;-67
2022/04/01 12:17:26;;;;;;;22.00;5.50;;;22.70;99.90;;;;;;5035894;28;20312;-69
2022/04/01 12:20:13;;;;;;;22.83;5.50;;;22.80;99.90;;;;;;5035826;28;20641;-68
2022/04/01 12:22:40;;;;;;;19.27;5.68;;;22.80;99.90;;;;;;5034985;28;20188;-67
2022/04/01 12:25:08;;;;;;;15.87;5.90;;;22.80;99.90;;;;;;5045384;28;20183;-68
2022/04/01 12:28:13;;;;;;;26.13;5.30;;;22.80;99.90;;;;;;5035946;28;20215;-68
2022/04/01 12:30:44;;;;;;;25.45;6.00;;;22.70;99.90;;;;;;5047546;28;20207;-67
2022/04/01 12:33:28;;;;;;;17.73;5.27;;;22.70;99.90;;;;;;5030914;28;20199;-68
2022/04/01 12:35:58;;;;;;;20.03;5.53;;;22.60;99.90;;;;;;5031788;28;20211;-68
2022/04/01 12:38:34;;;;;;;26.07;5.80;;;22.70;99.90;;;;;;5027962;28;20656;-67
2022/04/01 12:41:17;;;;;;;28.77;5.75;;;22.70;99.90;;;;;;5038876;28;20897;-67
2022/04/01 12:43:44;;;;;;;29.17;5.90;;;22.80;99.90;;;;;;5028854;28;20656;-68
2022/04/01 12:46:29;;;;;;;20.10;5.33;;;22.90;99.90;;;;;;5036356;28;20263;-69
2022/04/01 12:49:15;;;;;;;20.42;5.78;;;22.80;99.90;;;;;;5036610;28;21983;-67
2022/04/01 12:52:06;;;;;;;22.00;5.37;;;22.80;99.90;;;;;;5040715;28;20196;-68
2022/04/01 12:54:38;;;;;;;28.73;6.22;;;22.90;99.90;;;;;;5041215;28;20288;-67
2022/04/01 12:57:11;;;;;;;20.20;6.13;;;22.90;99.90;;;;;;5058175;28;20195;-68
2022/04/01 12:59:48;;;;;;;23.83;5.90;;;22.90;99.90;;;;;;5040729;28;20644;-67
2022/04/01 13:02:23;;;;;;;17.83;5.90;;;22.90;99.90;;;;;;5036018;28;20195;-69
2022/04/01 13:04:56;;;;;;;22.75;6.10;;;22.90;99.90;;;;;;5037709;28;20648;-68
2022/04/01 13:07:33;;;;;;;25.37;6.17;;;22.90;99.90;;;;;;5035114;28;20714;-68
2022/04/01 13:10:23;;;;;;;23.50;6.25;;;23.00;99.90;;;;;;5038996;28;20255;-68
2022/04/01 13:12:55;;;;;;;26.52;6.57;;;23.00;99.90;;;;;;5058841;28;20219;-67
2022/04/01 13:15:27;;;;;;;19.67;6.07;;;22.90;99.90;;;;;;5033950;28;20648;-68